createdAt,value
2017-11-19T00:00:52.828Z,4.58
2017-11-19T00:01:52.821Z,4.66
2017-11-19T00:02:52.807Z,4.62
2017-11-19T00:03:52.788Z,4.66
2017-11-19T00:04:52.804Z,4.62
2017-11-19T00:05:52.779Z,4.58
2017-11-19T00:06:52.752Z,4.59
2017-11-19T00:07:52.740Z,4.63
2017-11-19T00:08:52.728Z,4.70
2017-11-19T00:09:52.713Z,4.60
2017-11-19T00:10:52.710Z,4.63
2017-11-19T00:11:52.691Z,4.67
2017-11-19T00:12:52.682Z,4.60
2017-11-19T00:13:52.716Z,4.62
2017-11-19T00:14:52.699Z,4.66
2017-11-19T00:15:52.642Z,4.59
2017-11-19T00:16:52.627Z,4.67
2017-11-19T00:17:52.643Z,4.78
2017-11-19T00:18:52.599Z,4.78
2017-11-19T00:19:52.587Z,4.78
2017-11-19T00:20:52.587Z,4.80
2017-11-19T00:21:52.559Z,4.77
2017-11-19T00:22:52.552Z,4.82
2017-11-19T00:23:52.538Z,4.78
2017-11-19T00:24:52.524Z,4.82
2017-11-19T00:25:52.507Z,4.82
2017-11-19T00:26:52.497Z,4.89
2017-11-19T00:27:52.481Z,4.86
2017-11-19T00:28:52.466Z,4.89
2017-11-19T00:29:52.457Z,4.78
2017-11-19T00:30:52.445Z,4.90
2017-11-19T00:31:52.449Z,4.89
2017-11-19T00:32:52.415Z,4.96
2017-11-19T00:33:52.403Z,4.90
2017-11-19T00:34:52.427Z,4.90
2017-11-19T00:35:52.581Z,4.90
2017-11-19T00:36:52.467Z,4.87
2017-11-19T00:37:52.356Z,4.90
2017-11-19T00:38:52.344Z,4.84
2017-11-19T00:39:52.332Z,4.86
2017-11-19T00:40:52.337Z,4.89
2017-11-19T00:41:52.305Z,4.92
2017-11-19T00:42:52.290Z,4.89
2017-11-19T00:43:52.275Z,4.87
2017-11-19T00:44:52.263Z,4.87
2017-11-19T00:45:52.248Z,4.86
2017-11-19T00:46:52.239Z,4.94
2017-11-19T00:47:52.227Z,4.78
2017-11-19T00:48:52.217Z,4.84
2017-11-19T00:49:52.202Z,4.82
2017-11-19T00:50:52.191Z,4.80
2017-11-19T00:51:52.173Z,4.87
2017-11-19T00:52:52.159Z,4.84
2017-11-19T00:53:52.149Z,4.86
2017-11-19T00:54:52.151Z,4.82
2017-11-19T00:55:52.136Z,4.82
2017-11-19T00:56:52.109Z,4.78
2017-11-19T00:57:52.096Z,4.80
2017-11-19T00:58:52.081Z,4.82
2017-11-19T00:59:52.198Z,4.89
2017-11-19T01:00:52.063Z,4.77
2017-11-19T01:01:52.052Z,4.75
2017-11-19T01:02:52.034Z,4.78
2017-11-19T01:03:52.015Z,4.71
2017-11-19T01:04:52.006Z,4.77
2017-11-19T01:05:52.003Z,4.75
2017-11-19T01:06:51.977Z,4.70
2017-11-19T01:07:51.968Z,4.68
2017-11-19T01:08:51.958Z,4.62
2017-11-19T01:09:51.946Z,4.66
2017-11-19T01:10:51.925Z,4.68
2017-11-19T01:11:51.914Z,4.56
2017-11-19T01:12:51.914Z,4.58
2017-11-19T01:13:51.892Z,4.63
2017-11-19T01:14:51.876Z,4.56
2017-11-19T01:15:51.861Z,4.56
2017-11-19T01:16:51.853Z,4.52
2017-11-19T01:17:51.835Z,4.56
2017-11-19T01:18:51.838Z,4.53
2017-11-19T01:19:51.811Z,4.53
2017-11-19T01:20:51.798Z,4.58
2017-11-19T01:21:51.786Z,4.52
2017-11-19T01:22:51.768Z,4.58
2017-11-19T01:23:51.758Z,4.55
2017-11-19T01:24:51.745Z,4.45
2017-11-19T01:25:51.738Z,4.44
2017-11-19T01:26:51.717Z,4.50
2017-11-19T01:27:51.704Z,4.48
2017-11-19T01:28:51.691Z,4.50
2017-11-19T01:29:51.680Z,4.48
2017-11-19T01:30:51.666Z,4.42
2017-11-19T01:31:51.652Z,4.40
2017-11-19T01:32:51.638Z,4.45
2017-11-19T01:33:51.626Z,4.44
2017-11-19T01:34:51.611Z,4.37
2017-11-19T01:35:51.597Z,4.44
2017-11-19T01:36:51.585Z,4.41
2017-11-19T01:37:51.573Z,4.38
2017-11-19T01:38:51.570Z,4.34
2017-11-19T01:39:51.547Z,4.35
2017-11-19T01:40:51.534Z,4.23
2017-11-19T01:41:51.535Z,4.31
2017-11-19T01:42:51.514Z,4.24
2017-11-19T01:43:51.531Z,4.30
2017-11-19T01:44:51.489Z,4.22
2017-11-19T01:45:51.472Z,4.19
2017-11-19T01:46:51.453Z,4.24
2017-11-19T01:47:51.442Z,4.23
2017-11-19T01:48:51.428Z,4.20
2017-11-19T01:49:51.415Z,4.19
2017-11-19T01:50:51.426Z,4.19
2017-11-19T01:51:51.387Z,4.17
2017-11-19T01:52:51.380Z,4.19
2017-11-19T01:53:51.362Z,4.19
2017-11-19T01:54:51.356Z,4.22
2017-11-19T01:55:51.334Z,4.16
2017-11-19T01:56:51.321Z,4.20
2017-11-19T01:57:51.307Z,4.22
2017-11-19T01:58:51.299Z,4.24
2017-11-19T01:59:51.285Z,4.23
2017-11-19T02:00:51.276Z,4.20
2017-11-19T02:01:51.255Z,4.20
2017-11-19T02:02:51.244Z,4.14
2017-11-19T02:03:51.236Z,4.16
2017-11-19T02:04:51.214Z,4.13
2017-11-19T02:05:51.211Z,4.10
2017-11-19T02:06:51.197Z,4.10
2017-11-19T02:07:51.173Z,4.12
2017-11-19T02:08:51.160Z,4.16
2017-11-19T02:09:51.154Z,4.17
2017-11-19T02:10:51.135Z,4.06
2017-11-19T02:11:51.122Z,4.04
2017-11-19T02:12:51.108Z,4.12
2017-11-19T02:13:51.094Z,4.06
2017-11-19T02:14:51.081Z,4.14
2017-11-19T02:15:51.092Z,4.08
2017-11-19T02:16:51.055Z,4.06
2017-11-19T02:17:51.040Z,4.13
2017-11-19T02:18:51.028Z,4.08
2017-11-19T02:19:51.014Z,4.08
2017-11-19T02:20:51.001Z,4.02
2017-11-19T02:21:50.987Z,4.04
2017-11-19T02:22:50.978Z,4.05
2017-11-19T02:23:50.962Z,4.08
2017-11-19T02:24:50.946Z,3.99
2017-11-19T02:25:50.941Z,4.02
2017-11-19T02:26:50.920Z,4.01
2017-11-19T02:27:50.914Z,3.96
2017-11-19T02:28:50.892Z,3.96
2017-11-19T02:29:50.880Z,3.96
2017-11-19T02:30:50.870Z,3.95
2017-11-19T02:31:50.866Z,3.94
2017-11-19T02:32:50.841Z,3.94
2017-11-19T02:33:50.826Z,3.95
2017-11-19T02:34:50.816Z,3.96
2017-11-19T02:35:50.800Z,3.94
2017-11-19T02:36:50.788Z,3.86
2017-11-19T02:37:50.776Z,3.87
2017-11-19T02:38:50.758Z,3.91
2017-11-19T02:39:50.757Z,3.87
2017-11-19T02:40:50.731Z,3.88
2017-11-19T02:41:50.718Z,3.94
2017-11-19T02:42:50.714Z,3.73
2017-11-19T02:43:50.694Z,3.83
2017-11-19T02:44:50.687Z,3.69
2017-11-19T02:45:50.665Z,3.70
2017-11-19T02:46:50.657Z,3.83
2017-11-19T02:47:50.638Z,3.78
2017-11-19T02:48:50.622Z,3.78
2017-11-19T02:49:50.612Z,3.83
2017-11-19T02:50:50.600Z,3.76
2017-11-19T02:51:50.586Z,3.77
2017-11-19T02:52:50.570Z,3.74
2017-11-19T02:53:50.558Z,3.74
2017-11-19T02:54:50.549Z,3.78
2017-11-19T02:55:50.529Z,3.77
2017-11-19T02:56:55.678Z,3.74
2017-11-19T02:57:50.500Z,3.70
2017-11-19T02:58:50.487Z,3.66
2017-11-19T02:59:50.475Z,3.68
2017-11-19T03:00:50.463Z,3.65
2017-11-19T03:01:50.447Z,3.63
2017-11-19T03:02:50.433Z,3.68
2017-11-19T03:03:50.425Z,3.58
2017-11-19T03:04:50.408Z,3.63
2017-11-19T03:05:50.396Z,3.65
2017-11-19T03:06:50.383Z,3.53
2017-11-19T03:07:50.363Z,3.56
2017-11-19T03:08:50.353Z,3.63
2017-11-19T03:09:50.336Z,3.50
2017-11-19T03:10:50.336Z,3.62
2017-11-19T03:11:50.324Z,3.63
2017-11-19T03:12:50.297Z,3.63
2017-11-19T03:13:50.285Z,3.53
2017-11-19T03:14:50.270Z,3.63
2017-11-19T03:15:50.255Z,3.66
2017-11-19T03:16:50.241Z,3.51
2017-11-19T03:17:50.228Z,3.65
2017-11-19T03:18:50.215Z,3.60
2017-11-19T03:19:50.201Z,3.56
2017-11-19T03:20:50.187Z,3.53
2017-11-19T03:21:50.174Z,3.50
2017-11-19T03:22:50.161Z,3.58
2017-11-19T03:23:50.150Z,3.51
2017-11-19T03:24:50.139Z,3.53
2017-11-19T03:25:50.130Z,3.62
2017-11-19T03:26:50.107Z,3.55
2017-11-19T03:27:50.093Z,3.58
2017-11-19T03:28:50.084Z,3.62
2017-11-19T03:29:50.064Z,3.53
2017-11-19T03:30:50.086Z,3.63
2017-11-19T03:31:50.038Z,3.56
2017-11-19T03:32:50.026Z,3.58
2017-11-19T03:33:50.016Z,3.55
2017-11-19T03:34:49.996Z,3.51
2017-11-19T03:35:49.983Z,3.53
2017-11-19T03:36:49.975Z,3.60
2017-11-19T03:37:49.957Z,3.59
2017-11-19T03:38:49.950Z,3.55
2017-11-19T03:39:49.928Z,3.58
2017-11-19T03:40:49.915Z,3.51
2017-11-19T03:41:49.906Z,3.59
2017-11-19T03:42:49.888Z,3.55
2017-11-19T03:43:49.874Z,3.51
2017-11-19T03:44:49.860Z,3.56
2017-11-19T03:45:49.845Z,3.53
2017-11-19T03:46:49.835Z,3.63
2017-11-19T03:47:49.819Z,3.53
2017-11-19T03:48:49.805Z,3.50
2017-11-19T03:49:49.797Z,3.59
2017-11-19T03:50:49.777Z,3.60
2017-11-19T03:51:49.774Z,3.65
2017-11-19T03:52:49.749Z,3.59
2017-11-19T03:53:49.736Z,3.58
2017-11-19T03:54:49.725Z,3.65
2017-11-19T03:55:49.708Z,3.60
2017-11-19T03:56:49.695Z,3.63
2017-11-19T03:57:49.681Z,3.66
2017-11-19T03:58:49.670Z,3.68
2017-11-19T03:59:49.657Z,3.62
2017-11-19T04:00:49.639Z,3.56
2017-11-19T04:01:49.627Z,3.51
2017-11-19T04:02:49.614Z,3.56
2017-11-19T04:03:49.599Z,3.62
2017-11-19T04:04:49.586Z,3.60
2017-11-19T04:05:49.572Z,3.63
2017-11-19T04:06:49.559Z,3.56
2017-11-19T04:07:49.545Z,3.62
2017-11-19T04:08:49.535Z,3.53
2017-11-19T04:09:49.523Z,3.60
2017-11-19T04:10:49.504Z,3.59
2017-11-19T04:11:49.505Z,3.58
2017-11-19T04:12:49.477Z,3.59
2017-11-19T04:13:49.467Z,3.51
2017-11-19T04:14:49.453Z,3.63
2017-11-19T04:15:49.438Z,3.58
2017-11-19T04:16:49.433Z,3.53
2017-11-19T04:17:49.409Z,3.50
2017-11-19T04:18:49.401Z,3.62
2017-11-19T04:19:49.381Z,3.59
2017-11-19T04:20:49.368Z,3.60
2017-11-19T04:21:49.356Z,3.58
2017-11-19T04:22:49.342Z,3.56
2017-11-19T04:23:49.326Z,3.66
2017-11-19T04:24:49.314Z,3.53
2017-11-19T04:25:49.301Z,3.63
2017-11-19T04:26:49.286Z,3.50
2017-11-19T04:27:49.296Z,3.50
2017-11-19T04:28:49.258Z,3.59
2017-11-19T04:29:49.247Z,3.51
2017-11-19T04:30:49.233Z,3.53
2017-11-19T04:31:49.221Z,3.59
2017-11-19T04:32:49.203Z,3.56
2017-11-19T04:33:49.191Z,3.62
2017-11-19T04:34:49.178Z,3.59
2017-11-19T04:35:49.163Z,3.51
2017-11-19T04:36:49.149Z,3.55
2017-11-19T04:37:49.137Z,3.59
2017-11-19T04:38:49.122Z,3.50
2017-11-19T04:39:49.107Z,3.53
2017-11-19T04:40:49.095Z,3.56
2017-11-19T04:41:49.085Z,3.58
2017-11-19T04:42:49.067Z,3.55
2017-11-19T04:43:49.054Z,3.50
2017-11-19T04:44:49.045Z,3.48
2017-11-19T04:45:49.028Z,3.51
2017-11-19T04:46:49.013Z,3.50
2017-11-19T04:47:48.999Z,3.56
2017-11-19T04:48:48.990Z,3.53
2017-11-19T04:49:48.971Z,3.55
2017-11-19T04:50:48.961Z,3.53
2017-11-19T04:51:48.952Z,3.48
2017-11-19T04:52:48.933Z,3.59
2017-11-19T04:53:48.918Z,3.51
2017-11-19T04:54:48.903Z,3.56
2017-11-19T04:55:48.894Z,3.55
2017-11-19T04:56:48.878Z,3.51
2017-11-19T04:57:48.863Z,3.53
2017-11-19T04:58:48.848Z,3.62
2017-11-19T04:59:48.837Z,3.63
2017-11-19T05:00:48.824Z,3.60
2017-11-19T05:01:48.807Z,3.66
2017-11-19T05:02:48.800Z,3.62
2017-11-19T05:03:48.778Z,3.69
2017-11-19T05:04:48.767Z,3.68
2017-11-19T05:05:48.755Z,3.68
2017-11-19T05:06:48.741Z,3.65
2017-11-19T05:07:48.725Z,3.74
2017-11-19T05:08:48.714Z,3.70
2017-11-19T05:09:48.705Z,3.70
2017-11-19T05:10:48.684Z,3.66
2017-11-19T05:11:48.672Z,3.70
2017-11-19T05:12:48.657Z,3.70
2017-11-19T05:13:48.645Z,3.74
2017-11-19T05:14:48.631Z,3.69
2017-11-19T05:15:48.622Z,3.68
2017-11-19T05:16:48.608Z,3.76
2017-11-19T05:17:48.593Z,3.76
2017-11-19T05:18:48.578Z,3.69
2017-11-19T05:19:48.562Z,3.73
2017-11-19T05:20:48.554Z,3.81
2017-11-19T05:21:48.537Z,3.81
2017-11-19T05:22:48.527Z,3.78
2017-11-19T05:23:48.515Z,3.74
2017-11-19T05:24:48.497Z,3.70
2017-11-19T05:25:48.485Z,3.78
2017-11-19T05:26:48.469Z,3.70
2017-11-19T05:27:48.458Z,3.77
2017-11-19T05:28:48.440Z,3.81
2017-11-19T05:29:48.430Z,3.76
2017-11-19T05:30:48.417Z,3.76
2017-11-19T05:31:48.401Z,3.76
2017-11-19T05:32:48.390Z,3.78
2017-11-19T05:33:48.374Z,3.84
2017-11-19T05:34:48.364Z,3.73
2017-11-19T05:35:48.368Z,3.73
2017-11-19T05:36:48.367Z,3.78
2017-11-19T05:37:48.320Z,3.76
2017-11-19T05:38:48.311Z,3.83
2017-11-19T05:39:48.295Z,3.81
2017-11-19T05:40:48.282Z,3.91
2017-11-19T05:41:48.267Z,3.92
2017-11-19T05:42:48.255Z,3.92
2017-11-19T05:43:48.239Z,3.91
2017-11-19T05:44:48.226Z,3.81
2017-11-19T05:45:48.222Z,3.87
2017-11-19T05:46:48.205Z,3.94
2017-11-19T05:47:48.186Z,3.94
2017-11-19T05:48:48.174Z,3.86
2017-11-19T05:49:48.160Z,3.92
2017-11-19T05:50:48.145Z,3.86
2017-11-19T05:51:48.132Z,3.86
2017-11-19T05:52:48.128Z,3.88
2017-11-19T05:53:48.106Z,3.88
2017-11-19T05:54:48.090Z,3.86
2017-11-19T05:55:48.077Z,3.77
2017-11-19T05:56:48.101Z,3.86
2017-11-19T05:57:48.049Z,3.86
2017-11-19T05:58:48.037Z,3.83
2017-11-19T05:59:48.033Z,3.78
2017-11-19T06:00:48.009Z,3.74
2017-11-19T06:01:47.996Z,3.77
2017-11-19T06:02:47.982Z,3.74
2017-11-19T06:03:47.971Z,3.62
2017-11-19T06:04:47.956Z,3.68
2017-11-19T06:05:47.942Z,3.62
2017-11-19T06:06:47.933Z,3.51
2017-11-19T06:07:47.921Z,3.59
2017-11-19T06:08:47.900Z,3.68
2017-11-19T06:09:47.893Z,3.56
2017-11-19T06:10:47.873Z,3.50
2017-11-19T06:11:47.865Z,3.50
2017-11-19T06:12:47.845Z,3.51
2017-11-19T06:13:47.831Z,3.56
2017-11-19T06:14:47.821Z,3.50
2017-11-19T06:15:47.804Z,3.53
2017-11-19T06:16:47.793Z,3.50
2017-11-19T06:17:47.780Z,3.50
2017-11-19T06:18:47.765Z,3.47
2017-11-19T06:19:47.749Z,3.48
2017-11-19T06:20:47.736Z,3.51
2017-11-19T06:21:47.731Z,3.50
2017-11-19T06:22:47.709Z,3.50
2017-11-19T06:23:47.694Z,3.42
2017-11-19T06:24:47.681Z,3.50
2017-11-19T06:25:47.672Z,3.53
2017-11-19T06:26:47.656Z,3.50
2017-11-19T06:27:47.644Z,3.51
2017-11-19T06:28:47.628Z,3.56
2017-11-19T06:29:47.618Z,3.53
2017-11-19T06:30:47.600Z,3.56
2017-11-19T06:31:47.583Z,3.58
2017-11-19T06:32:47.575Z,3.55
2017-11-19T06:33:47.556Z,3.48
2017-11-19T06:34:47.544Z,3.50
2017-11-19T06:35:47.531Z,3.53
2017-11-19T06:36:47.518Z,3.50
2017-11-19T06:37:47.513Z,3.56
2017-11-19T06:38:47.498Z,3.56
2017-11-19T06:39:47.474Z,3.51
2017-11-19T06:40:47.462Z,3.50
2017-11-19T06:41:47.448Z,3.51
2017-11-19T06:42:47.436Z,3.53
2017-11-19T06:43:47.421Z,3.50
2017-11-19T06:44:47.407Z,3.37
2017-11-19T06:45:47.396Z,3.40
2017-11-19T06:46:47.382Z,3.42
2017-11-19T06:47:47.364Z,3.45
2017-11-19T06:48:47.354Z,3.40
2017-11-19T06:49:47.338Z,3.36
2017-11-19T06:50:47.326Z,3.37
2017-11-19T06:51:47.308Z,3.40
2017-11-19T06:52:47.299Z,3.41
2017-11-19T06:53:47.298Z,3.28
2017-11-19T06:54:47.277Z,3.29
2017-11-19T06:55:47.257Z,3.41
2017-11-19T06:56:47.241Z,3.32
2017-11-19T06:57:47.228Z,3.31
2017-11-19T06:58:47.216Z,3.29
2017-11-19T06:59:47.200Z,3.26
2017-11-19T07:00:47.192Z,3.25
2017-11-19T07:01:47.175Z,3.31
2017-11-19T07:02:47.160Z,3.23
2017-11-19T07:03:47.169Z,3.31
2017-11-19T07:04:47.134Z,3.22
2017-11-19T07:05:47.145Z,3.21
2017-11-19T07:06:47.107Z,3.29
2017-11-19T07:07:47.090Z,3.21
2017-11-19T07:08:47.095Z,3.31
2017-11-19T07:09:47.063Z,3.23
2017-11-19T07:10:47.055Z,3.31
2017-11-19T07:11:47.041Z,3.22
2017-11-19T07:12:47.024Z,3.31
2017-11-19T07:13:47.033Z,3.28
2017-11-19T07:14:46.993Z,3.26
2017-11-19T07:15:47.000Z,3.36
2017-11-19T07:16:46.965Z,3.41
2017-11-19T07:17:46.958Z,3.36
2017-11-19T07:18:46.960Z,3.41
2017-11-19T07:19:46.925Z,3.32
2017-11-19T07:20:46.910Z,3.26
2017-11-19T07:21:46.898Z,3.37
2017-11-19T07:22:46.894Z,3.37
2017-11-19T07:23:46.873Z,3.28
2017-11-19T07:24:46.855Z,3.36
2017-11-19T07:25:46.842Z,3.32
2017-11-19T07:26:46.833Z,3.36
2017-11-19T07:27:46.816Z,3.29
2017-11-19T07:28:46.813Z,3.47
2017-11-19T07:29:46.787Z,3.41
2017-11-19T07:30:46.801Z,3.40
2017-11-19T07:31:46.758Z,3.37
2017-11-19T07:32:46.749Z,3.42
2017-11-19T07:33:46.739Z,3.36
2017-11-19T07:34:46.725Z,3.34
2017-11-19T07:35:46.700Z,3.34
2017-11-19T07:36:46.689Z,3.42
2017-11-19T07:37:46.672Z,3.41
2017-11-19T07:38:46.665Z,3.41
2017-11-19T07:39:46.645Z,3.37
2017-11-19T07:40:46.635Z,3.41
2017-11-19T07:41:46.621Z,3.34
2017-11-19T07:42:46.627Z,3.44
2017-11-19T07:43:46.599Z,3.42
2017-11-19T07:44:46.581Z,3.44
2017-11-19T07:45:46.570Z,3.45
2017-11-19T07:46:46.563Z,3.37
2017-11-19T07:47:46.543Z,3.45
2017-11-19T07:48:46.547Z,3.50
2017-11-19T07:49:46.512Z,3.47
2017-11-19T07:50:46.524Z,3.41
2017-11-19T07:51:46.485Z,3.48
2017-11-19T07:52:46.473Z,3.53
2017-11-19T07:53:46.460Z,3.56
2017-11-19T07:54:46.441Z,3.56
2017-11-19T07:55:46.426Z,3.50
2017-11-19T07:56:46.415Z,3.56
2017-11-19T07:57:46.397Z,3.62
2017-11-19T07:58:46.395Z,3.51
2017-11-19T07:59:46.372Z,3.56
2017-11-19T08:00:46.360Z,3.62
2017-11-19T08:01:46.348Z,3.66
2017-11-19T08:02:46.333Z,3.68
2017-11-19T08:03:46.732Z,3.76
2017-11-19T08:04:46.305Z,3.73
2017-11-19T08:05:46.302Z,3.74
2017-11-19T08:06:46.309Z,3.70
2017-11-19T08:07:46.265Z,3.78
2017-11-19T08:08:46.252Z,3.78
2017-11-19T08:09:46.237Z,3.77
2017-11-19T08:10:46.224Z,3.76
2017-11-19T08:11:46.210Z,3.78
2017-11-19T08:12:46.198Z,3.80
2017-11-19T08:13:46.186Z,3.77
2017-11-19T08:14:46.173Z,3.70
2017-11-19T08:15:46.157Z,3.91
2017-11-19T08:16:46.148Z,3.94
2017-11-19T08:17:46.132Z,3.86
2017-11-19T08:18:46.120Z,3.86
2017-11-19T08:19:46.106Z,3.84
2017-11-19T08:20:46.092Z,3.94
2017-11-19T08:21:46.079Z,3.94
2017-11-19T08:22:46.068Z,3.95
2017-11-19T08:23:46.057Z,3.95
2017-11-19T08:24:46.053Z,4.02
2017-11-19T08:25:46.028Z,4.12
2017-11-19T08:26:46.020Z,4.16
2017-11-19T08:27:46.003Z,4.24
2017-11-19T08:28:45.991Z,4.28
2017-11-19T08:29:45.975Z,4.34
2017-11-19T08:30:45.972Z,4.40
2017-11-19T08:31:45.953Z,4.50
2017-11-19T08:32:45.938Z,4.58
2017-11-19T08:33:45.926Z,4.70
2017-11-19T08:34:45.912Z,4.77
2017-11-19T08:35:45.904Z,4.77
2017-11-19T08:36:45.888Z,4.89
2017-11-19T08:37:45.877Z,5.08
2017-11-19T08:38:45.866Z,5.11
2017-11-19T08:39:45.855Z,5.14
2017-11-19T08:40:45.852Z,5.17
2017-11-19T08:41:45.831Z,5.08
2017-11-19T08:42:45.823Z,5.26
2017-11-19T08:43:45.810Z,5.32
2017-11-19T08:44:45.802Z,5.30
2017-11-19T08:45:45.784Z,5.33
2017-11-19T08:46:45.772Z,5.33
2017-11-19T08:47:45.763Z,5.32
2017-11-19T08:48:45.758Z,5.38
2017-11-19T08:49:45.740Z,5.50
2017-11-19T08:50:45.731Z,5.64
2017-11-19T08:51:45.721Z,5.61
2017-11-19T08:52:45.709Z,5.69
2017-11-19T08:53:45.701Z,5.80
2017-11-19T08:54:45.688Z,5.82
2017-11-19T08:55:45.675Z,5.79
2017-11-19T08:56:45.666Z,5.82
2017-11-19T08:57:45.653Z,5.79
2017-11-19T08:58:45.643Z,5.75
2017-11-19T08:59:45.629Z,5.71
2017-11-19T09:00:45.621Z,5.69
2017-11-19T09:01:45.610Z,5.64
2017-11-19T09:02:45.688Z,5.65
2017-11-19T09:03:45.589Z,5.65
2017-11-19T09:04:45.615Z,5.66
2017-11-19T09:05:45.569Z,5.65
2017-11-19T09:06:45.555Z,5.64
2017-11-19T09:07:45.542Z,5.72
2017-11-19T09:08:45.532Z,5.56
2017-11-19T09:09:45.529Z,5.65
2017-11-19T09:10:45.511Z,5.59
2017-11-19T09:11:45.500Z,5.54
2017-11-19T09:12:45.485Z,5.53
2017-11-19T09:13:45.481Z,5.71
2017-11-19T09:14:45.465Z,5.66
2017-11-19T09:15:45.454Z,5.64
2017-11-19T09:16:45.440Z,5.64
2017-11-19T09:17:45.429Z,5.66
2017-11-19T09:18:45.427Z,5.65
2017-11-19T09:19:45.413Z,5.72
2017-11-19T09:20:45.403Z,5.73
2017-11-19T09:21:45.407Z,5.82
2017-11-19T09:22:45.374Z,5.72
2017-11-19T09:23:45.364Z,5.89
2017-11-19T09:24:45.350Z,5.82
2017-11-19T09:25:45.341Z,5.87
2017-11-19T09:26:45.333Z,5.91
2017-11-19T09:27:45.317Z,5.84
2017-11-19T09:28:45.309Z,5.93
2017-11-19T09:29:45.295Z,6.08
2017-11-19T09:30:45.294Z,6.26
2017-11-19T09:31:45.269Z,6.42
2017-11-19T09:32:45.259Z,6.60
2017-11-19T09:33:45.280Z,6.79
2017-11-19T09:34:45.238Z,6.89
2017-11-19T09:35:45.264Z,6.87
2017-11-19T09:36:45.218Z,6.97
2017-11-19T09:37:45.239Z,6.82
2017-11-19T09:38:45.199Z,6.79
2017-11-19T09:39:45.192Z,6.77
2017-11-19T09:40:45.173Z,6.77
2017-11-19T09:41:45.168Z,6.67
2017-11-19T09:42:45.183Z,6.72
2017-11-19T09:43:45.149Z,6.78
2017-11-19T09:44:45.131Z,6.78
2017-11-19T09:45:45.140Z,6.77
2017-11-19T09:46:45.111Z,6.89
2017-11-19T09:47:45.109Z,7.11
2017-11-19T09:48:45.098Z,7.18
2017-11-19T09:49:45.082Z,7.33
2017-11-19T09:50:45.071Z,7.39
2017-11-19T09:51:45.063Z,7.43
2017-11-19T09:52:45.048Z,7.50
2017-11-19T09:53:45.039Z,7.66
2017-11-19T09:54:45.034Z,7.75
2017-11-19T09:55:45.020Z,7.75
2017-11-19T09:56:45.011Z,7.80
2017-11-19T09:57:45.005Z,7.73
2017-11-19T09:58:44.995Z,7.75
2017-11-19T09:59:44.986Z,7.67
2017-11-19T10:00:44.981Z,7.66
2017-11-19T10:01:44.969Z,7.53
2017-11-19T10:02:44.956Z,7.54
2017-11-19T10:03:44.949Z,7.45
2017-11-19T10:04:44.936Z,7.40
2017-11-19T10:05:44.931Z,7.39
2017-11-19T10:06:44.926Z,7.39
2017-11-19T10:07:44.913Z,7.42
2017-11-19T10:08:44.898Z,7.45
2017-11-19T10:09:44.889Z,7.47
2017-11-19T10:10:44.881Z,7.54
2017-11-19T10:11:44.877Z,7.53
2017-11-19T10:12:44.859Z,7.57
2017-11-19T10:13:44.852Z,7.57
2017-11-19T10:14:44.839Z,7.72
2017-11-19T10:15:44.844Z,7.67
2017-11-19T10:16:44.879Z,7.79
2017-11-19T10:17:44.821Z,7.79
2017-11-19T10:18:44.802Z,7.69
2017-11-19T10:19:44.799Z,7.72
2017-11-19T10:20:44.782Z,7.73
2017-11-19T10:21:44.778Z,7.83
2017-11-19T10:22:44.763Z,7.82
2017-11-19T10:23:44.755Z,7.98
2017-11-19T10:24:44.743Z,7.91
2017-11-19T10:25:44.738Z,7.95
2017-11-19T10:26:44.725Z,7.91
2017-11-19T10:27:44.720Z,7.95
2017-11-19T10:28:44.707Z,7.79
2017-11-19T10:29:44.728Z,7.83
2017-11-19T10:30:44.691Z,7.70
2017-11-19T10:31:44.685Z,7.73
2017-11-19T10:32:44.671Z,7.83
2017-11-19T10:33:44.713Z,7.91
2017-11-19T10:34:44.652Z,8.05
2017-11-19T10:35:44.647Z,8.09
2017-11-19T10:36:44.635Z,8.13
2017-11-19T10:37:44.625Z,8.08
2017-11-19T10:38:44.623Z,7.98
2017-11-19T10:39:44.601Z,7.94
2017-11-19T10:40:44.593Z,7.82
2017-11-19T10:41:44.582Z,7.82
2017-11-19T10:42:44.579Z,7.79
2017-11-19T10:43:44.563Z,7.66
2017-11-19T10:44:44.558Z,7.75
2017-11-19T10:45:44.549Z,7.73
2017-11-19T10:46:44.541Z,7.70
2017-11-19T10:47:44.539Z,7.67
2017-11-19T10:48:44.514Z,7.67
2017-11-19T10:49:44.535Z,7.61
2017-11-19T10:50:44.493Z,7.61
2017-11-19T10:51:44.483Z,7.75
2017-11-19T10:52:44.499Z,7.79
2017-11-19T10:53:44.463Z,7.79
2017-11-19T10:54:44.488Z,7.75
2017-11-19T10:55:44.449Z,7.72
2017-11-19T10:56:44.435Z,7.76
2017-11-19T10:57:44.424Z,7.87
2017-11-19T10:58:44.457Z,7.93
2017-11-19T10:59:44.404Z,8.16
2017-11-19T11:00:44.397Z,8.18
2017-11-19T11:01:44.397Z,8.31
2017-11-19T11:02:44.378Z,8.45
2017-11-19T11:03:44.398Z,8.37
2017-11-19T11:04:45.278Z,8.42
2017-11-19T11:05:44.403Z,8.37
2017-11-19T11:06:44.402Z,8.34
2017-11-19T11:07:44.333Z,8.44
2017-11-19T11:08:44.317Z,8.52
2017-11-19T11:09:44.304Z,8.52
2017-11-19T11:10:44.296Z,8.64
2017-11-19T11:11:44.286Z,8.73
2017-11-19T11:12:44.276Z,8.91
2017-11-19T11:13:44.272Z,8.79
2017-11-19T11:14:44.257Z,9.00
2017-11-19T11:15:44.251Z,9.08
2017-11-19T11:16:44.237Z,9.10
2017-11-19T11:17:44.234Z,9.02
2017-11-19T11:18:44.222Z,9.18
2017-11-19T11:19:44.215Z,9.16
2017-11-19T11:20:44.210Z,9.11
2017-11-19T11:21:44.196Z,9.11
2017-11-19T11:22:44.223Z,9.26
2017-11-19T11:23:44.193Z,9.26
2017-11-19T11:24:44.171Z,9.26
2017-11-19T11:25:44.161Z,9.32
2017-11-19T11:26:44.160Z,9.36
2017-11-19T11:27:44.145Z,9.44
2017-11-19T11:28:44.136Z,9.59
2017-11-19T11:29:44.130Z,9.66
2017-11-19T11:30:44.123Z,9.72
2017-11-19T11:31:44.122Z,9.74
2017-11-19T11:32:44.106Z,9.86
2017-11-19T11:33:44.107Z,9.86
2017-11-19T11:34:44.097Z,9.97
2017-11-19T11:35:44.110Z,10.02
2017-11-19T11:36:44.088Z,10.17
2017-11-19T11:37:44.077Z,10.12
2017-11-19T11:38:44.076Z,10.13
2017-11-19T11:39:44.073Z,10.09
2017-11-19T11:40:44.055Z,10.13
2017-11-19T11:41:44.045Z,10.07
2017-11-19T11:42:44.037Z,9.97
2017-11-19T11:43:44.041Z,9.83
2017-11-19T11:44:44.054Z,9.68
2017-11-19T11:45:44.018Z,9.62
2017-11-19T11:46:44.018Z,9.58
2017-11-19T11:47:44.009Z,9.66
2017-11-19T11:48:43.996Z,9.73
2017-11-19T11:49:43.995Z,9.82
2017-11-19T11:50:44.008Z,9.73
2017-11-19T11:51:43.981Z,9.74
2017-11-19T11:52:43.964Z,9.74
2017-11-19T11:53:43.957Z,9.73
2017-11-19T11:54:43.955Z,9.77
2017-11-19T11:55:43.941Z,9.64
2017-11-19T11:56:43.940Z,9.68
2017-11-19T11:57:43.924Z,9.59
2017-11-19T11:58:43.924Z,9.48
2017-11-19T11:59:43.906Z,9.47
2017-11-19T12:00:43.904Z,9.54
2017-11-19T12:01:43.889Z,9.56
2017-11-19T12:02:43.891Z,9.46
2017-11-19T12:03:43.891Z,9.56
2017-11-19T12:04:43.868Z,9.47
2017-11-19T12:05:43.855Z,9.46
2017-11-19T12:06:43.849Z,9.40
2017-11-19T12:07:43.843Z,9.34
2017-11-19T12:08:43.836Z,9.25
2017-11-19T12:09:43.821Z,9.29
2017-11-19T12:10:43.812Z,9.26
2017-11-19T12:11:43.806Z,9.18
2017-11-19T12:12:43.809Z,9.25
2017-11-19T12:13:43.819Z,9.18
2017-11-19T12:14:43.777Z,9.19
2017-11-19T12:15:43.768Z,9.10
2017-11-19T12:16:43.758Z,9.00
2017-11-19T12:17:43.751Z,8.94
2017-11-19T12:18:43.745Z,8.92
2017-11-19T12:19:43.729Z,8.91
2017-11-19T12:20:43.726Z,8.91
2017-11-19T12:21:43.710Z,8.79
2017-11-19T12:22:43.700Z,8.69
2017-11-19T12:23:43.692Z,8.69
2017-11-19T12:24:43.687Z,8.61
2017-11-19T12:25:43.678Z,8.61
2017-11-19T12:26:43.668Z,8.51
2017-11-19T12:27:43.654Z,8.55
2017-11-19T12:28:43.698Z,8.52
2017-11-19T12:29:43.641Z,8.52
2017-11-19T12:30:43.624Z,8.48
2017-11-19T12:31:43.630Z,8.56
2017-11-19T12:32:43.607Z,8.52
2017-11-19T12:33:43.609Z,8.64
2017-11-19T12:34:43.588Z,8.66
2017-11-19T12:35:43.586Z,8.61
2017-11-19T12:36:43.570Z,8.66
2017-11-19T12:37:43.556Z,8.63
2017-11-19T12:38:43.546Z,8.52
2017-11-19T12:39:43.554Z,8.51
2017-11-19T12:40:43.521Z,8.46
2017-11-19T12:41:43.520Z,8.38
2017-11-19T12:42:43.500Z,8.44
2017-11-19T12:43:43.492Z,8.42
2017-11-19T12:44:43.482Z,8.36
2017-11-19T12:45:43.470Z,8.53
2017-11-19T12:46:43.460Z,8.51
2017-11-19T12:47:43.449Z,8.55
2017-11-19T12:48:43.437Z,8.63
2017-11-19T12:49:43.429Z,8.70
2017-11-19T12:50:43.418Z,8.60
2017-11-19T12:51:43.427Z,8.58
2017-11-19T12:52:43.416Z,8.64
2017-11-19T12:53:43.395Z,8.78
2017-11-19T12:54:43.381Z,8.76
2017-11-19T12:55:43.368Z,8.66
2017-11-19T12:56:43.374Z,8.70
2017-11-19T12:57:43.369Z,8.60
2017-11-19T12:58:43.339Z,8.55
2017-11-19T12:59:43.332Z,8.45
2017-11-19T13:00:43.320Z,8.38
2017-11-19T13:01:43.310Z,8.42
2017-11-19T13:02:43.304Z,8.45
2017-11-19T13:03:43.286Z,8.45
2017-11-19T13:04:43.278Z,8.51
2017-11-19T13:05:43.274Z,8.63
2017-11-19T13:06:43.270Z,8.64
2017-11-19T13:07:43.248Z,8.55
2017-11-19T13:08:43.240Z,8.53
2017-11-19T13:09:43.243Z,8.55
2017-11-19T13:10:43.217Z,8.51
2017-11-19T13:11:43.208Z,8.45
2017-11-19T13:12:43.197Z,8.37
2017-11-19T13:13:43.189Z,8.30
2017-11-19T13:14:43.180Z,8.31
2017-11-19T13:15:43.167Z,8.24
2017-11-19T13:16:43.155Z,8.16
2017-11-19T13:17:43.157Z,8.16
2017-11-19T13:18:43.135Z,8.06